sensor_id;sensor_type;location;lat;lon;timestamp;P1;durP1;ratioP1;P2;durP2;ratioP2
19167;SDS011;9716;53.114;18.040;2023-04-24T00:02:16;7.13;;;3.83;;
19167;SDS011;9716;53.114;18.040;2023-04-24T00:04:45;10.10;;;3.40;;
19167;SDS011;9716;53.114;18.040;2023-04-24T00:07:17;12.52;;;4.10;;
19167;SDS011;9716;53.114;18.040;2023-04-24T00:09:46;7.63;;;3.95;;
19167;SDS011;9716;53.114;18.040;2023-04-24T00:12:15;7.38;;;4.80;;
19167;SDS011;9716;53.114;18.040;2023-04-24T00:14:43;8.10;;;3.75;;
19167;SDS011;9716;53.114;18.040;2023-04-24T00:17:11;10.52;;;4.85;;
19167;SDS011;9716;53.114;18.040;2023-04-24T00:19:40;10.10;;;4.60;;
19167;SDS011;9716;53.114;18.040;2023-04-24T00:22:09;8.50;;;4.57;;
19167;SDS011;9716;53.114;18.040;2023-04-24T00:24:38;8.02;;;4.57;;
19167;SDS011;9716;53.114;18.040;2023-04-24T00:27:07;7.60;;;3.70;;
19167;SDS011;9716;53.114;18.040;2023-04-24T00:29:35;6.57;;;3.88;;
19167;SDS011;9716;53.114;18.040;2023-04-24T00:32:04;6.63;;;3.58;;
19167;SDS011;9716;53.114;18.040;2023-04-24T00:34:32;7.18;;;4.13;;
19167;SDS011;9716;53.114;18.040;2023-04-24T00:37:01;8.48;;;4.03;;
19167;SDS011;9716;53.114;18.040;2023-04-24T00:39:30;11.13;;;5.60;;
19167;SDS011;9716;53.114;18.040;2023-04-24T00:41:59;7.07;;;4.88;;
19167;SDS011;9716;53.114;18.040;2023-04-24T00:44:28;11.77;;;5.63;;
19167;SDS011;9716;53.114;18.040;2023-04-24T00:46:57;9.70;;;4.95;;
19167;SDS011;9716;53.114;18.040;2023-04-24T00:49:26;8.18;;;4.45;;
19167;SDS011;9716;53.114;18.040;2023-04-24T00:51:55;11.43;;;4.65;;
19167;SDS011;9716;53.114;18.040;2023-04-24T00:54:25;10.15;;;4.72;;
19167;SDS011;9716;53.114;18.040;2023-04-24T00:56:54;7.40;;;3.83;;
19167;SDS011;9716;53.114;18.040;2023-04-24T00:59:24;6.88;;;4.63;;
19167;SDS011;9716;53.114;18.040;2023-04-24T01:01:53;14.20;;;5.45;;
19167;SDS011;9716;53.114;18.040;2023-04-24T01:04:22;7.03;;;3.90;;
19167;SDS011;9716;53.114;18.040;2023-04-24T01:06:50;8.35;;;4.47;;
19167;SDS011;9716;53.114;18.040;2023-04-24T01:09:19;12.13;;;4.40;;
19167;SDS011;9716;53.114;18.040;2023-04-24T01:11:51;11.10;;;4.35;;
19167;SDS011;9716;53.114;18.040;2023-04-24T01:14:19;7.45;;;4.18;;
19167;SDS011;9716;53.114;18.040;2023-04-24T01:16:50;7.38;;;4.13;;
19167;SDS011;9716;53.114;18.040;2023-04-24T01:19:18;7.57;;;3.85;;
19167;SDS011;9716;53.114;18.040;2023-04-24T01:21:47;8.63;;;4.85;;
19167;SDS011;9716;53.114;18.040;2023-04-24T01:24:22;8.18;;;4.18;;
19167;SDS011;9716;53.114;18.040;2023-04-24T01:26:51;13.15;;;5.82;;
19167;SDS011;9716;53.114;18.040;2023-04-24T01:29:19;8.98;;;4.88;;
19167;SDS011;9716;53.114;18.040;2023-04-24T01:31:48;9.13;;;4.65;;
19167;SDS011;9716;53.114;18.040;2023-04-24T01:34:16;10.20;;;4.50;;
19167;SDS011;9716;53.114;18.040;2023-04-24T01:36:45;9.23;;;5.38;;
19167;SDS011;9716;53.114;18.040;2023-04-24T01:39:15;8.43;;;5.25;;
19167;SDS011;9716;53.114;18.040;2023-04-24T01:41:45;12.07;;;4.93;;
19167;SDS011;9716;53.114;18.040;2023-04-24T01:44:13;11.95;;;5.63;;
19167;SDS011;9716;53.114;18.040;2023-04-24T01:46:42;10.90;;;5.53;;
19167;SDS011;9716;53.114;18.040;2023-04-24T01:49:10;11.93;;;5.38;;
19167;SDS011;9716;53.114;18.040;2023-04-24T01:51:39;10.05;;;4.93;;
19167;SDS011;9716;53.114;18.040;2023-04-24T01:54:07;10.57;;;5.63;;
19167;SDS011;9716;53.114;18.040;2023-04-24T01:56:36;9.88;;;4.90;;
19167;SDS011;9716;53.114;18.040;2023-04-24T01:59:10;9.23;;;5.22;;
19167;SDS011;9716;53.114;18.040;2023-04-24T02:01:39;8.38;;;4.50;;
19167;SDS011;9716;53.114;18.040;2023-04-24T02:04:07;7.88;;;5.03;;
19167;SDS011;9716;53.114;18.040;2023-04-24T02:06:36;11.35;;;5.95;;
19167;SDS011;9716;53.114;18.040;2023-04-24T02:09:04;9.68;;;5.50;;
19167;SDS011;9716;53.114;18.040;2023-04-24T02:11:33;11.68;;;5.70;;
19167;SDS011;9716;53.114;18.040;2023-04-24T02:14:01;10.20;;;5.53;;
19167;SDS011;9716;53.114;18.040;2023-04-24T02:16:31;9.93;;;5.18;;
19167;SDS011;9716;53.114;18.040;2023-04-24T02:19:02;10.05;;;5.18;;
19167;SDS011;9716;53.114;18.040;2023-04-24T02:21:31;15.20;;;5.88;;
19167;SDS011;9716;53.114;18.040;2023-04-24T02:23:59;8.77;;;5.28;;
19167;SDS011;9716;53.114;18.040;2023-04-24T02:26:28;11.30;;;6.10;;
19167;SDS011;9716;53.114;18.040;2023-04-24T02:28:58;12.45;;;6.22;;
19167;SDS011;9716;53.114;18.040;2023-04-24T02:31:26;17.17;;;7.15;;
19167;SDS011;9716;53.114;18.040;2023-04-24T02:33:56;15.98;;;6.15;;
19167;SDS011;9716;53.114;18.040;2023-04-24T02:36:24;20.67;;;6.25;;
19167;SDS011;9716;53.114;18.040;2023-04-24T02:38:53;8.10;;;5.63;;
19167;SDS011;9716;53.114;18.040;2023-04-24T02:41:21;10.88;;;5.63;;
19167;SDS011;9716;53.114;18.040;2023-04-24T02:43:49;9.85;;;5.65;;
19167;SDS011;9716;53.114;18.040;2023-04-24T02:46:18;15.82;;;6.43;;
19167;SDS011;9716;53.114;18.040;2023-04-24T02:48:46;10.48;;;6.38;;
19167;SDS011;9716;53.114;18.040;2023-04-24T02:51:16;12.85;;;6.32;;
19167;SDS011;9716;53.114;18.040;2023-04-24T02:53:44;14.93;;;6.50;;
19167;SDS011;9716;53.114;18.040;2023-04-24T02:56:13;14.75;;;6.05;;
19167;SDS011;9716;53.114;18.040;2023-04-24T02:58:41;11.35;;;6.25;;
19167;SDS011;9716;53.114;18.040;2023-04-24T03:01:10;12.73;;;5.32;;
19167;SDS011;9716;53.114;18.040;2023-04-24T03:03:39;10.50;;;6.18;;
19167;SDS011;9716;53.114;18.040;2023-04-24T03:06:08;11.25;;;5.65;;
19167;SDS011;9716;53.114;18.040;2023-04-24T03:08:37;13.27;;;6.15;;
19167;SDS011;9716;53.114;18.040;2023-04-24T03:11:06;12.20;;;5.93;;
19167;SDS011;9716;53.114;18.040;2023-04-24T03:13:34;11.65;;;6.03;;
19167;SDS011;9716;53.114;18.040;2023-04-24T03:16:03;10.18;;;5.95;;
19167;SDS011;9716;53.114;18.040;2023-04-24T03:18:32;11.75;;;6.10;;
19167;SDS011;9716;53.114;18.040;2023-04-24T03:21:01;14.35;;;6.65;;
19167;SDS011;9716;53.114;18.040;2023-04-24T03:23:29;11.68;;;6.47;;
19167;SDS011;9716;53.114;18.040;2023-04-24T03:25:59;16.08;;;6.95;;
19167;SDS011;9716;53.114;18.040;2023-04-24T03:28:28;14.35;;;7.10;;
19167;SDS011;9716;53.114;18.040;2023-04-24T03:30:57;15.52;;;6.03;;
19167;SDS011;9716;53.114;18.040;2023-04-24T03:33:26;12.30;;;6.82;;
19167;SDS011;9716;53.114;18.040;2023-04-24T03:35:54;14.60;;;6.00;;
19167;SDS011;9716;53.114;18.040;2023-04-24T03:38:23;12.23;;;6.70;;
19167;SDS011;9716;53.114;18.040;2023-04-24T03:40:52;10.18;;;6.07;;
19167;SDS011;9716;53.114;18.040;2023-04-24T03:43:21;12.57;;;6.57;;
19167;SDS011;9716;53.114;18.040;2023-04-24T03:45:50;12.70;;;6.00;;
19167;SDS011;9716;53.114;18.040;2023-04-24T03:48:18;11.70;;;6.43;;
19167;SDS011;9716;53.114;18.040;2023-04-24T03:50:47;13.40;;;6.55;;
19167;SDS011;9716;53.114;18.040;2023-04-24T03:53:15;16.55;;;6.22;;
19167;SDS011;9716;53.114;18.040;2023-04-24T03:55:44;13.18;;;5.97;;
19167;SDS011;9716;53.114;18.040;2023-04-24T03:58:12;9.95;;;5.55;;
19167;SDS011;9716;53.114;18.040;2023-04-24T04:00:42;12.07;;;5.80;;
19167;SDS011;9716;53.114;18.040;2023-04-24T04:03:13;15.70;;;6.32;;
19167;SDS011;9716;53.114;18.040;2023-04-24T04:05:42;9.18;;;4.85;;
19167;SDS011;9716;53.114;18.040;2023-04-24T04:08:10;14.35;;;5.20;;
19167;SDS011;9716;53.114;18.040;2023-04-24T04:10:39;7.95;;;4.50;;
19167;SDS011;9716;53.114;18.040;2023-04-24T04:13:07;11.23;;;6.47;;
19167;SDS011;9716;53.114;18.040;2023-04-24T04:15:36;11.43;;;5.47;;
19167;SDS011;9716;53.114;18.040;2023-04-24T04:18:06;9.70;;;5.18;;
19167;SDS011;9716;53.114;18.040;2023-04-24T04:20:35;9.50;;;5.78;;
19167;SDS011;9716;53.114;18.040;2023-04-24T04:23:04;12.00;;;5.85;;
19167;SDS011;9716;53.114;18.040;2023-04-24T04:25:33;12.77;;;5.65;;
19167;SDS011;9716;53.114;18.040;2023-04-24T04:28:01;10.73;;;5.43;;
19167;SDS011;9716;53.114;18.040;2023-04-24T04:30:30;19.60;;;8.23;;
19167;SDS011;9716;53.114;18.040;2023-04-24T04:32:58;24.90;;;8.88;;
19167;SDS011;9716;53.114;18.040;2023-04-24T04:35:29;13.88;;;7.78;;
19167;SDS011;9716;53.114;18.040;2023-04-24T04:37:57;19.13;;;8.65;;
19167;SDS011;9716;53.114;18.040;2023-04-24T04:40:26;15.90;;;8.60;;
19167;SDS011;9716;53.114;18.040;2023-04-24T04:42:56;14.65;;;7.85;;
19167;SDS011;9716;53.114;18.040;2023-04-24T04:45:25;16.67;;;8.43;;
19167;SDS011;9716;53.114;18.040;2023-04-24T04:47:54;12.07;;;7.15;;
19167;SDS011;9716;53.114;18.040;2023-04-24T04:50:23;14.48;;;7.60;;
19167;SDS011;9716;53.114;18.040;2023-04-24T04:52:53;14.20;;;7.53;;
19167;SDS011;9716;53.114;18.040;2023-04-24T04:55:22;20.25;;;8.43;;
19167;SDS011;9716;53.114;18.040;2023-04-24T04:57:50;16.02;;;7.80;;
19167;SDS011;9716;53.114;18.040;2023-04-24T05:00:19;19.33;;;7.43;;
19167;SDS011;9716;53.114;18.040;2023-04-24T05:02:47;12.70;;;6.63;;
19167;SDS011;9716;53.114;18.040;2023-04-24T05:05:16;15.93;;;7.60;;
19167;SDS011;9716;53.114;18.040;2023-04-24T05:07:45;13.07;;;7.40;;
19167;SDS011;9716;53.114;18.040;2023-04-24T05:10:15;18.20;;;7.72;;
19167;SDS011;9716;53.114;18.040;2023-04-24T05:12:43;15.98;;;7.82;;
19167;SDS011;9716;53.114;18.040;2023-04-24T05:15:12;12.73;;;7.97;;
19167;SDS011;9716;53.114;18.040;2023-04-24T05:17:40;13.90;;;7.13;;
19167;SDS011;9716;53.114;18.040;2023-04-24T05:20:09;15.25;;;7.68;;
19167;SDS011;9716;53.114;18.040;2023-04-24T05:22:37;13.75;;;7.70;;
19167;SDS011;9716;53.114;18.040;2023-04-24T05:25:06;18.98;;;8.18;;
19167;SDS011;9716;53.114;18.040;2023-04-24T05:27:36;18.33;;;8.15;;
19167;SDS011;9716;53.114;18.040;2023-04-24T05:30:06;15.45;;;7.65;;
19167;SDS011;9716;53.114;18.040;2023-04-24T05:32:36;16.08;;;8.27;;
19167;SDS011;9716;53.114;18.040;2023-04-24T05:35:04;12.48;;;7.32;;
19167;SDS011;9716;53.114;18.040;2023-04-24T05:37:34;17.10;;;7.38;;
19167;SDS011;9716;53.114;18.040;2023-04-24T05:40:03;16.67;;;7.53;;
19167;SDS011;9716;53.114;18.040;2023-04-24T05:42:32;14.63;;;6.80;;
19167;SDS011;9716;53.114;18.040;2023-04-24T05:45:02;16.40;;;6.80;;
19167;SDS011;9716;53.114;18.040;2023-04-24T05:47:30;17.20;;;7.85;;
19167;SDS011;9716;53.114;18.040;2023-04-24T05:49:59;17.42;;;7.55;;
19167;SDS011;9716;53.114;18.040;2023-04-24T05:52:28;15.68;;;6.30;;
19167;SDS011;9716;53.114;18.040;2023-04-24T05:54:57;11.52;;;6.43;;
19167;SDS011;9716;53.114;18.040;2023-04-24T05:57:25;12.60;;;6.68;;
19167;SDS011;9716;53.114;18.040;2023-04-24T05:59:54;14.68;;;6.40;;
19167;SDS011;9716;53.114;18.040;2023-04-24T06:02:24;17.95;;;6.72;;
19167;SDS011;9716;53.114;18.040;2023-04-24T06:04:53;13.48;;;7.05;;
19167;SDS011;9716;53.114;18.040;2023-04-24T06:07:22;9.65;;;6.28;;
19167;SDS011;9716;53.114;18.040;2023-04-24T06:09:50;20.65;;;6.50;;
19167;SDS011;9716;53.114;18.040;2023-04-24T06:12:18;13.00;;;7.10;;
19167;SDS011;9716;53.114;18.040;2023-04-24T06:14:47;12.98;;;6.03;;
19167;SDS011;9716;53.114;18.040;2023-04-24T06:17:16;11.70;;;6.45;;
19167;SDS011;9716;53.114;18.040;2023-04-24T06:19:46;13.85;;;6.95;;
19167;SDS011;9716;53.114;18.040;2023-04-24T06:22:14;11.68;;;6.25;;
19167;SDS011;9716;53.114;18.040;2023-04-24T06:24:43;14.45;;;5.95;;
19167;SDS011;9716;53.114;18.040;2023-04-24T06:27:12;12.38;;;5.85;;
19167;SDS011;9716;53.114;18.040;2023-04-24T06:29:41;11.73;;;5.78;;
19167;SDS011;9716;53.114;18.040;2023-04-24T06:32:10;8.60;;;5.47;;
19167;SDS011;9716;53.114;18.040;2023-04-24T06:34:39;10.45;;;5.72;;
19167;SDS011;9716;53.114;18.040;2023-04-24T06:37:10;16.00;;;5.57;;
19167;SDS011;9716;53.114;18.040;2023-04-24T06:39:38;10.07;;;4.82;;
19167;SDS011;9716;53.114;18.040;2023-04-24T06:42:07;15.38;;;6.03;;
19167;SDS011;9716;53.114;18.040;2023-04-24T06:44:36;13.13;;;5.28;;
19167;SDS011;9716;53.114;18.040;2023-04-24T06:47:07;15.65;;;5.65;;
19167;SDS011;9716;53.114;18.040;2023-04-24T06:49:36;13.73;;;6.38;;
19167;SDS011;9716;53.114;18.040;2023-04-24T06:52:05;9.70;;;5.13;;
19167;SDS011;9716;53.114;18.040;2023-04-24T06:54:35;11.07;;;4.57;;
19167;SDS011;9716;53.114;18.040;2023-04-24T06:57:03;11.32;;;4.78;;
19167;SDS011;9716;53.114;18.040;2023-04-24T06:59:32;8.25;;;4.80;;
19167;SDS011;9716;53.114;18.040;2023-04-24T07:02:01;10.15;;;5.15;;
19167;SDS011;9716;53.114;18.040;2023-04-24T07:04:30;10.30;;;5.30;;
19167;SDS011;9716;53.114;18.040;2023-04-24T07:06:58;9.90;;;5.20;;
19167;SDS011;9716;53.114;18.040;2023-04-24T07:09:27;14.60;;;5.13;;
19167;SDS011;9716;53.114;18.040;2023-04-24T07:11:57;10.38;;;4.68;;
19167;SDS011;9716;53.114;18.040;2023-04-24T07:14:26;8.75;;;4.90;;
19167;SDS011;9716;53.114;18.040;2023-04-24T07:16:54;11.27;;;5.40;;
19167;SDS011;9716;53.114;18.040;2023-04-24T07:19:23;8.90;;;4.07;;
19167;SDS011;9716;53.114;18.040;2023-04-24T07:21:52;7.32;;;4.60;;
19167;SDS011;9716;53.114;18.040;2023-04-24T07:24:21;14.77;;;4.18;;
19167;SDS011;9716;53.114;18.040;2023-04-24T07:26:54;11.00;;;4.38;;
19167;SDS011;9716;53.114;18.040;2023-04-24T07:29:25;6.15;;;4.00;;
19167;SDS011;9716;53.114;18.040;2023-04-24T07:31:54;7.97;;;4.43;;
19167;SDS011;9716;53.114;18.040;2023-04-24T07:34:23;11.30;;;4.85;;
19167;SDS011;9716;53.114;18.040;2023-04-24T07:36:51;10.63;;;5.18;;
19167;SDS011;9716;53.114;18.040;2023-04-24T07:39:20;8.63;;;4.50;;
19167;SDS011;9716;53.114;18.040;2023-04-24T07:41:49;5.43;;;4.15;;
19167;SDS011;9716;53.114;18.040;2023-04-24T07:44:17;5.65;;;3.97;;
19167;SDS011;9716;53.114;18.040;2023-04-24T07:46:48;10.40;;;4.30;;
19167;SDS011;9716;53.114;18.040;2023-04-24T07:49:17;7.10;;;4.40;;
19167;SDS011;9716;53.114;18.040;2023-04-24T07:51:51;16.02;;;3.83;;
19167;SDS011;9716;53.114;18.040;2023-04-24T07:54:20;8.75;;;3.78;;
19167;SDS011;9716;53.114;18.040;2023-04-24T07:56:49;8.65;;;4.68;;
19167;SDS011;9716;53.114;18.040;2023-04-24T07:59:17;5.40;;;3.83;;
19167;SDS011;9716;53.114;18.040;2023-04-24T08:01:48;7.57;;;2.97;;
19167;SDS011;9716;53.114;18.040;2023-04-24T08:04:16;11.35;;;4.05;;
19167;SDS011;9716;53.114;18.040;2023-04-24T08:06:46;6.93;;;3.78;;
19167;SDS011;9716;53.114;18.040;2023-04-24T08:09:15;7.43;;;3.35;;
19167;SDS011;9716;53.114;18.040;2023-04-24T08:11:43;6.25;;;3.58;;
19167;SDS011;9716;53.114;18.040;2023-04-24T08:14:12;5.20;;;3.15;;
19167;SDS011;9716;53.114;18.040;2023-04-24T08:16:41;7.97;;;3.53;;
19167;SDS011;9716;53.114;18.040;2023-04-24T08:19:11;5.00;;;3.42;;
19167;SDS011;9716;53.114;18.040;2023-04-24T08:21:39;7.60;;;4.10;;
19167;SDS011;9716;53.114;18.040;2023-04-24T08:24:08;6.97;;;3.40;;
19167;SDS011;9716;53.114;18.040;2023-04-24T08:26:37;8.10;;;4.05;;
19167;SDS011;9716;53.114;18.040;2023-04-24T08:29:05;8.13;;;3.70;;
19167;SDS011;9716;53.114;18.040;2023-04-24T08:31:34;5.95;;;3.25;;
19167;SDS011;9716;53.114;18.040;2023-04-24T08:34:03;4.50;;;3.17;;
19167;SDS011;9716;53.114;18.040;2023-04-24T08:36:33;5.00;;;3.10;;
19167;SDS011;9716;53.114;18.040;2023-04-24T08:39:13;5.32;;;3.45;;
19167;SDS011;9716;53.114;18.040;2023-04-24T08:41:41;3.60;;;2.38;;
19167;SDS011;9716;53.114;18.040;2023-04-24T08:44:12;4.72;;;3.20;;
19167;SDS011;9716;53.114;18.040;2023-04-24T08:46:42;3.92;;;2.85;;
19167;SDS011;9716;53.114;18.040;2023-04-24T08:49:13;7.82;;;3.40;;
19167;SDS011;9716;53.114;18.040;2023-04-24T08:51:44;3.17;;;2.60;;
19167;SDS011;9716;53.114;18.040;2023-04-24T08:54:13;8.18;;;2.90;;
19167;SDS011;9716;53.114;18.040;2023-04-24T08:56:42;5.95;;;3.38;;
19167;SDS011;9716;53.114;18.040;2023-04-24T08:59:12;9.02;;;3.50;;
19167;SDS011;9716;53.114;18.040;2023-04-24T09:01:41;5.57;;;3.10;;
19167;SDS011;9716;53.114;18.040;2023-04-24T09:04:13;5.32;;;3.03;;
19167;SDS011;9716;53.114;18.040;2023-04-24T09:06:46;8.13;;;3.33;;
19167;SDS011;9716;53.114;18.040;2023-04-24T09:09:16;4.55;;;2.78;;
19167;SDS011;9716;53.114;18.040;2023-04-24T09:11:45;4.15;;;3.05;;
19167;SDS011;9716;53.114;18.040;2023-04-24T09:14:15;3.90;;;2.88;;
19167;SDS011;9716;53.114;18.040;2023-04-24T09:16:44;4.93;;;3.25;;
19167;SDS011;9716;53.114;18.040;2023-04-24T09:19:13;5.80;;;2.70;;
19167;SDS011;9716;53.114;18.040;2023-04-24T09:21:42;6.75;;;2.55;;
19167;SDS011;9716;53.114;18.040;2023-04-24T09:24:15;8.88;;;2.92;;
19167;SDS011;9716;53.114;18.040;2023-04-24T09:26:45;7.28;;;2.95;;
19167;SDS011;9716;53.114;18.040;2023-04-24T09:29:14;4.60;;;3.08;;
19167;SDS011;9716;53.114;18.040;2023-04-24T09:31:44;5.60;;;3.03;;
19167;SDS011;9716;53.114;18.040;2023-04-24T09:34:14;6.82;;;3.55;;
19167;SDS011;9716;53.114;18.040;2023-04-24T09:36:42;4.95;;;2.80;;
19167;SDS011;9716;53.114;18.040;2023-04-24T09:39:13;7.38;;;2.67;;
19167;SDS011;9716;53.114;18.040;2023-04-24T09:41:44;7.07;;;3.53;;
19167;SDS011;9716;53.114;18.040;2023-04-24T09:44:14;12.48;;;3.25;;
19167;SDS011;9716;53.114;18.040;2023-04-24T09:46:44;3.47;;;2.60;;
19167;SDS011;9716;53.114;18.040;2023-04-24T09:49:19;7.05;;;2.90;;
19167;SDS011;9716;53.114;18.040;2023-04-24T09:51:56;4.47;;;2.67;;
19167;SDS011;9716;53.114;18.040;2023-04-24T09:54:32;3.60;;;2.60;;
19167;SDS011;9716;53.114;18.040;2023-04-24T09:57:03;5.18;;;2.40;;
19167;SDS011;9716;53.114;18.040;2023-04-24T09:59:32;3.88;;;2.80;;
19167;SDS011;9716;53.114;18.040;2023-04-24T10:02:02;4.38;;;2.67;;
19167;SDS011;9716;53.114;18.040;2023-04-24T10:04:53;8.93;;;3.17;;
19167;SDS011;9716;53.114;18.040;2023-04-24T10:07:25;5.78;;;2.88;;
19167;SDS011;9716;53.114;18.040;2023-04-24T10:09:55;8.48;;;2.85;;
19167;SDS011;9716;53.114;18.040;2023-04-24T10:12:24;9.93;;;2.92;;
19167;SDS011;9716;53.114;18.040;2023-04-24T10:14:55;5.20;;;3.10;;
19167;SDS011;9716;53.114;18.040;2023-04-24T10:17:25;4.47;;;2.95;;
19167;SDS011;9716;53.114;18.040;2023-04-24T10:19:55;3.28;;;2.58;;
19167;SDS011;9716;53.114;18.040;2023-04-24T10:22:25;11.80;;;3.15;;
19167;SDS011;9716;53.114;18.040;2023-04-24T10:24:58;4.30;;;2.58;;
19167;SDS011;9716;53.114;18.040;2023-04-24T10:27:27;3.42;;;2.42;;
19167;SDS011;9716;53.114;18.040;2023-04-24T10:29:58;4.13;;;2.42;;
19167;SDS011;9716;53.114;18.040;2023-04-24T10:32:27;6.32;;;2.67;;
19167;SDS011;9716;53.114;18.040;2023-04-24T10:34:56;11.93;;;2.67;;
19167;SDS011;9716;53.114;18.040;2023-04-24T10:37:25;4.25;;;2.65;;
19167;SDS011;9716;53.114;18.040;2023-04-24T10:39:55;4.53;;;2.58;;
19167;SDS011;9716;53.114;18.040;2023-04-24T10:42:24;3.97;;;2.50;;
19167;SDS011;9716;53.114;18.040;2023-04-24T10:44:55;7.63;;;2.83;;
19167;SDS011;9716;53.114;18.040;2023-04-24T10:47:24;6.65;;;2.97;;
19167;SDS011;9716;53.114;18.040;2023-04-24T10:49:53;3.63;;;2.30;;
19167;SDS011;9716;53.114;18.040;2023-04-24T10:55:13;5.63;;;2.58;;
19167;SDS011;9716;53.114;18.040;2023-04-24T11:00:32;2.72;;;2.00;;
19167;SDS011;9716;53.114;18.040;2023-04-24T11:03:05;3.88;;;2.40;;
19167;SDS011;9716;53.114;18.040;2023-04-24T11:05:48;7.22;;;2.40;;
19167;SDS011;9716;53.114;18.040;2023-04-24T11:08:22;4.20;;;2.47;;
19167;SDS011;9716;53.114;18.040;2023-04-24T11:16:37;7.38;;;2.88;;
19167;SDS011;9716;53.114;18.040;2023-04-24T11:19:17;5.28;;;3.10;;
19167;SDS011;9716;53.114;18.040;2023-04-24T11:21:48;7.35;;;3.35;;
19167;SDS011;9716;53.114;18.040;2023-04-24T11:24:25;5.53;;;3.60;;
19167;SDS011;9716;53.114;18.040;2023-04-24T11:26:56;7.93;;;3.72;;
19167;SDS011;9716;53.114;18.040;2023-04-24T11:29:40;7.25;;;4.05;;
19167;SDS011;9716;53.114;18.040;2023-04-24T11:32:17;5.45;;;3.60;;
19167;SDS011;9716;53.114;18.040;2023-04-24T11:34:47;4.22;;;2.70;;
19167;SDS011;9716;53.114;18.040;2023-04-24T11:37:17;7.78;;;3.13;;
19167;SDS011;9716;53.114;18.040;2023-04-24T11:39:45;6.85;;;3.10;;
19167;SDS011;9716;53.114;18.040;2023-04-24T11:42:14;7.00;;;3.00;;
19167;SDS011;9716;53.114;18.040;2023-04-24T11:44:44;4.90;;;3.28;;
19167;SDS011;9716;53.114;18.040;2023-04-24T11:47:15;3.97;;;3.28;;
19167;SDS011;9716;53.114;18.040;2023-04-24T11:49:43;5.82;;;3.03;;
19167;SDS011;9716;53.114;18.040;2023-04-24T11:52:14;3.90;;;2.65;;
19167;SDS011;9716;53.114;18.040;2023-04-24T11:54:47;7.00;;;3.13;;
19167;SDS011;9716;53.114;18.040;2023-04-24T11:57:18;6.50;;;3.50;;
19167;SDS011;9716;53.114;18.040;2023-04-24T11:59:50;5.50;;;3.67;;
19167;SDS011;9716;53.114;18.040;2023-04-24T12:02:22;4.25;;;3.03;;
19167;SDS011;9716;53.114;18.040;2023-04-24T12:04:51;9.50;;;3.30;;
19167;SDS011;9716;53.114;18.040;2023-04-24T12:07:21;3.20;;;2.65;;
19167;SDS011;9716;53.114;18.040;2023-04-24T12:09:55;12.30;;;3.13;;
19167;SDS011;9716;53.114;18.040;2023-04-24T12:12:27;3.08;;;2.78;;
19167;SDS011;9716;53.114;18.040;2023-04-24T12:14:58;6.32;;;3.22;;
19167;SDS011;9716;53.114;18.040;2023-04-24T12:17:28;10.07;;;3.67;;
19167;SDS011;9716;53.114;18.040;2023-04-24T12:19:58;4.07;;;2.63;;
19167;SDS011;9716;53.114;18.040;2023-04-24T12:22:42;5.05;;;3.15;;
19167;SDS011;9716;53.114;18.040;2023-04-24T12:25:12;3.78;;;2.83;;
19167;SDS011;9716;53.114;18.040;2023-04-24T12:27:41;16.30;;;2.80;;
19167;SDS011;9716;53.114;18.040;2023-04-24T12:30:12;5.97;;;2.90;;
19167;SDS011;9716;53.114;18.040;2023-04-24T12:32:42;4.20;;;3.03;;
19167;SDS011;9716;53.114;18.040;2023-04-24T12:35:12;3.40;;;2.30;;
19167;SDS011;9716;53.114;18.040;2023-04-24T12:37:42;5.72;;;2.25;;
19167;SDS011;9716;53.114;18.040;2023-04-24T12:40:13;6.28;;;2.58;;
19167;SDS011;9716;53.114;18.040;2023-04-24T12:42:43;2.60;;;2.03;;
19167;SDS011;9716;53.114;18.040;2023-04-24T12:45:14;5.00;;;2.30;;
19167;SDS011;9716;53.114;18.040;2023-04-24T12:47:44;2.28;;;1.88;;
19167;SDS011;9716;53.114;18.040;2023-04-24T12:50:14;3.20;;;2.05;;
19167;SDS011;9716;53.114;18.040;2023-04-24T12:52:44;4.00;;;2.20;;
19167;SDS011;9716;53.114;18.040;2023-04-24T12:55:12;2.53;;;2.25;;
19167;SDS011;9716;53.114;18.040;2023-04-24T12:57:41;4.22;;;2.17;;
19167;SDS011;9716;53.114;18.040;2023-04-24T13:00:09;3.38;;;1.67;;
19167;SDS011;9716;53.114;18.040;2023-04-24T13:02:40;3.58;;;2.28;;
19167;SDS011;9716;53.114;18.040;2023-04-24T13:05:09;8.57;;;2.53;;
19167;SDS011;9716;53.114;18.040;2023-04-24T13:07:38;4.03;;;2.10;;
19167;SDS011;9716;53.114;18.040;2023-04-24T13:10:07;4.53;;;2.35;;
19167;SDS011;9716;53.114;18.040;2023-04-24T13:12:36;2.83;;;2.35;;
19167;SDS011;9716;53.114;18.040;2023-04-24T13:15:05;3.38;;;2.10;;
19167;SDS011;9716;53.114;18.040;2023-04-24T13:17:34;3.92;;;2.30;;
19167;SDS011;9716;53.114;18.040;2023-04-24T13:20:05;4.53;;;2.08;;
19167;SDS011;9716;53.114;18.040;2023-04-24T13:22:35;4.90;;;2.28;;
19167;SDS011;9716;53.114;18.040;2023-04-24T13:25:04;5.65;;;2.40;;
19167;SDS011;9716;53.114;18.040;2023-04-24T13:27:34;4.43;;;2.58;;
19167;SDS011;9716;53.114;18.040;2023-04-24T13:30:02;4.40;;;2.67;;
19167;SDS011;9716;53.114;18.040;2023-04-24T13:32:32;4.85;;;2.50;;
19167;SDS011;9716;53.114;18.040;2023-04-24T13:35:02;4.25;;;3.15;;
19167;SDS011;9716;53.114;18.040;2023-04-24T13:37:33;4.72;;;3.05;;
19167;SDS011;9716;53.114;18.040;2023-04-24T13:40:01;6.20;;;3.15;;
19167;SDS011;9716;53.114;18.040;2023-04-24T13:42:33;3.42;;;2.55;;
19167;SDS011;9716;53.114;18.040;2023-04-24T13:45:01;6.18;;;2.80;;
19167;SDS011;9716;53.114;18.040;2023-04-24T13:47:50;4.28;;;2.58;;
19167;SDS011;9716;53.114;18.040;2023-04-24T13:50:20;7.30;;;3.08;;
19167;SDS011;9716;53.114;18.040;2023-04-24T13:52:51;5.18;;;2.97;;
19167;SDS011;9716;53.114;18.040;2023-04-24T13:55:19;3.55;;;2.88;;
19167;SDS011;9716;53.114;18.040;2023-04-24T13:57:48;2.95;;;2.08;;
19167;SDS011;9716;53.114;18.040;2023-04-24T14:00:19;4.03;;;2.50;;
19167;SDS011;9716;53.114;18.040;2023-04-24T14:02:47;2.35;;;2.15;;
19167;SDS011;9716;53.114;18.040;2023-04-24T14:05:17;6.50;;;2.92;;
19167;SDS011;9716;53.114;18.040;2023-04-24T14:07:45;3.28;;;2.05;;
19167;SDS011;9716;53.114;18.040;2023-04-24T14:10:15;3.85;;;2.53;;
19167;SDS011;9716;53.114;18.040;2023-04-24T14:12:44;3.28;;;2.30;;
19167;SDS011;9716;53.114;18.040;2023-04-24T14:15:12;3.75;;;2.85;;
19167;SDS011;9716;53.114;18.040;2023-04-24T14:17:41;3.45;;;2.17;;
19167;SDS011;9716;53.114;18.040;2023-04-24T14:20:12;3.33;;;2.28;;
19167;SDS011;9716;53.114;18.040;2023-04-24T14:22:41;3.35;;;2.45;;
19167;SDS011;9716;53.114;18.040;2023-04-24T14:25:09;5.90;;;2.85;;
19167;SDS011;9716;53.114;18.040;2023-04-24T14:27:40;4.88;;;2.63;;
19167;SDS011;9716;53.114;18.040;2023-04-24T14:30:09;5.32;;;2.50;;
19167;SDS011;9716;53.114;18.040;2023-04-24T14:32:39;3.22;;;2.28;;
19167;SDS011;9716;53.114;18.040;2023-04-24T14:35:08;3.17;;;2.15;;
19167;SDS011;9716;53.114;18.040;2023-04-24T14:37:36;3.67;;;2.20;;
19167;SDS011;9716;53.114;18.040;2023-04-24T14:40:07;5.85;;;2.03;;
19167;SDS011;9716;53.114;18.040;2023-04-24T14:42:58;12.65;;;2.45;;
19167;SDS011;9716;53.114;18.040;2023-04-24T14:45:27;3.10;;;2.10;;
19167;SDS011;9716;53.114;18.040;2023-04-24T14:47:56;3.35;;;2.13;;
19167;SDS011;9716;53.114;18.040;2023-04-24T14:50:25;1.77;;;1.63;;
19167;SDS011;9716;53.114;18.040;2023-04-24T14:52:56;3.92;;;2.40;;
19167;SDS011;9716;53.114;18.040;2023-04-24T14:55:25;3.25;;;2.38;;
19167;SDS011;9716;53.114;18.040;2023-04-24T14:57:54;2.67;;;2.38;;
19167;SDS011;9716;53.114;18.040;2023-04-24T15:00:23;3.65;;;2.03;;
19167;SDS011;9716;53.114;18.040;2023-04-24T15:02:52;3.90;;;1.98;;
19167;SDS011;9716;53.114;18.040;2023-04-24T15:05:22;3.20;;;2.00;;
19167;SDS011;9716;53.114;18.040;2023-04-24T15:07:52;4.55;;;1.98;;
19167;SDS011;9716;53.114;18.040;2023-04-24T15:10:21;2.40;;;1.60;;